Time;durP1;ratioP1;P1;durP2;ratioP2;P2;SDS_P1;SDS_P2;PMS_P1;PMS_P2;Temp;Humidity;BMP_temperature;BMP_pressure;BME280_temperature;BME280_humidity;BME280_pressure;Samples;Min_cycle;Max_cycle;Signal;HPM_P1;HPM_P2
2022/05/12 00:00:31;;;;;;;5.60;1.02;;;11.20;99.90;;;;;;5095181;28;20032;-59
2022/05/12 00:02:58;;;;;;;4.45;0.77;;;11.80;99.90;;;;;;5095005;28;20126;-58
2022/05/12 00:05:24;;;;;;;5.82;0.82;;;10.40;99.90;;;;;;5094862;28;20035;-59
2022/05/12 00:07:50;;;;;;;3.72;0.93;;;10.50;99.90;;;;;;5095192;28;20119;-59
2022/05/12 00:10:20;;;;;;;4.97;0.88;;;10.50;99.90;;;;;;5094753;28;20594;-58
2022/05/12 00:12:46;;;;;;;7.40;1.00;;;10.40;99.90;;;;;;5094677;28;20146;-58
2022/05/12 00:15:16;;;;;;;3.53;0.90;;;10.40;99.90;;;;;;5095151;28;20085;-59
2022/05/12 00:17:44;;;;;;;3.42;0.80;;;10.30;99.90;;;;;;5094694;28;20058;-59
2022/05/12 00:20:11;;;;;;;2.88;0.73;;;11.00;99.90;;;;;;5095081;28;20058;-59
2022/05/12 00:22:40;;;;;;;4.35;0.93;;;10.60;99.90;;;;;;5095811;28;20111;-58
2022/05/12 00:25:14;;;;;;;8.23;1.40;;;12.30;99.90;;;;;;5094135;28;20232;-58
2022/05/12 00:27:40;;;;;;;5.72;1.08;;;10.30;99.90;;;;;;5095678;28;20036;-58
2022/05/12 00:30:09;;;;;;;5.18;1.30;;;11.20;99.90;;;;;;5093783;28;20377;-59
2022/05/12 00:32:38;;;;;;;3.08;0.70;;;10.30;99.90;;;;;;5094586;28;20039;-59
2022/05/12 00:35:06;;;;;;;8.60;1.10;;;10.20;99.90;;;;;;5093955;28;20039;-59
2022/05/12 00:37:32;;;;;;;3.47;0.68;;;10.20;99.90;;;;;;5094582;28;20036;-59
2022/05/12 00:39:57;;;;;;;3.83;0.75;;;9.80;99.90;;;;;;5095327;28;20047;-59
2022/05/12 00:42:23;;;;;;;7.05;0.93;;;10.10;99.90;;;;;;5094487;28;20043;-59
2022/05/12 00:44:48;;;;;;;4.15;0.68;;;9.80;99.90;;;;;;5094914;28;21842;-59
2022/05/12 00:47:16;;;;;;;2.88;1.02;;;10.00;99.90;;;;;;5094505;28;20130;-58
2022/05/12 00:49:44;;;;;;;6.53;0.88;;;10.40;99.90;;;;;;5093053;28;20503;-58
2022/05/12 00:52:26;;;;;;;3.85;0.63;;;10.00;99.90;;;;;;5093108;28;20100;-58
2022/05/12 00:55:00;;;;;;;6.72;0.90;;;10.40;99.90;;;;;;5092742;28;20077;-59
2022/05/12 00:57:33;;;;;;;5.90;1.58;;;9.80;99.90;;;;;;5093649;28;20040;-59
2022/05/12 01:00:00;;;;;;;4.72;0.80;;;10.60;99.90;;;;;;5094269;28;20610;-59
2022/05/12 01:02:28;;;;;;;5.60;1.00;;;10.10;99.90;;;;;;5093758;28;20050;-58
2022/05/12 01:04:57;;;;;;;17.23;2.67;;;9.60;99.90;;;;;;5093482;28;20031;-59
2022/05/12 01:07:23;;;;;;;5.38;1.08;;;10.10;99.90;;;;;;5092682;28;20043;-59
2022/05/12 01:09:49;;;;;;;5.63;0.98;;;11.70;99.90;;;;;;5094881;28;20032;-59
2022/05/12 01:12:15;;;;;;;5.97;1.17;;;9.40;99.90;;;;;;5094054;28;20071;-59
2022/05/12 01:14:40;;;;;;;3.22;1.02;;;9.50;99.90;;;;;;5094598;28;20078;-59
2022/05/12 01:17:07;;;;;;;4.43;1.27;;;10.70;99.90;;;;;;5094103;28;20038;-59
2022/05/12 01:19:39;;;;;;;5.70;1.73;;;9.60;99.90;;;;;;5093302;28;20583;-59
2022/05/12 01:22:09;;;;;;;5.95;1.95;;;11.60;99.90;;;;;;5093764;28;20039;-59
2022/05/12 01:24:42;;;;;;;5.03;1.50;;;10.50;99.90;;;;;;5093427;28;20036;-59
2022/05/12 01:27:19;;;;;;;4.72;1.38;;;9.50;99.90;;;;;;5094637;28;20041;-59
2022/05/12 01:29:50;;;;;;;5.95;1.40;;;10.60;99.90;;;;;;5093591;28;20178;-59
2022/05/12 01:32:17;;;;;;;7.10;1.60;;;9.70;99.90;;;;;;5093679;28;20413;-59
2022/05/12 01:34:43;;;;;;;5.90;1.90;;;11.40;99.90;;;;;;5093268;28;20039;-59
2022/05/12 01:37:13;;;;;;;6.60;1.70;;;9.40;99.90;;;;;;5093529;28;20047;-59
2022/05/12 01:39:39;;;;;;;5.47;1.27;;;7.80;99.90;;;;;;5094603;28;20036;-59
2022/05/12 01:42:07;;;;;;;5.88;1.77;;;9.40;99.90;;;;;;5093004;28;20031;-59
2022/05/12 01:44:34;;;;;;;4.63;2.00;;;10.80;99.90;;;;;;5092231;28;20106;-59
2022/05/12 01:47:00;;;;;;;10.57;2.65;;;9.40;99.90;;;;;;5093170;28;20039;-59
2022/05/12 01:49:26;;;;;;;7.97;3.65;;;9.20;99.90;;;;;;5094027;28;20593;-59
2022/05/12 01:51:55;;;;;;;6.28;2.58;;;9.30;99.90;;;;;;5092666;28;20540;-59
2022/05/12 01:54:22;;;;;;;5.97;2.25;;;9.40;99.90;;;;;;5092761;28;20054;-59
2022/05/12 01:56:47;;;;;;;10.10;2.60;;;9.30;99.90;;;;;;5092604;28;20096;-59
2022/05/12 01:59:15;;;;;;;7.32;2.17;;;10.10;99.90;;;;;;5094288;28;20040;-59
2022/05/12 02:01:41;;;;;;;8.90;2.40;;;9.20;99.90;;;;;;5093315;28;20150;-59
2022/05/12 02:04:07;;;;;;;6.47;2.25;;;9.30;99.90;;;;;;5092082;28;20466;-59
2022/05/12 02:06:34;;;;;;;8.98;2.10;;;9.30;99.90;;;;;;5092318;28;20040;-58
2022/05/12 02:09:02;;;;;;;8.75;3.17;;;9.20;99.90;;;;;;5092619;28;20708;-59
2022/05/12 02:11:28;;;;;;;7.85;1.95;;;9.20;99.90;;;;;;5091105;28;20051;-58
2022/05/12 02:13:54;;;;;;;6.95;2.25;;;9.20;99.90;;;;;;5092790;28;20047;-58
2022/05/12 02:16:25;;;;;;;9.43;2.85;;;9.10;99.90;;;;;;5090254;28;20077;-58
2022/05/12 02:18:54;;;;;;;10.27;3.13;;;9.50;99.90;;;;;;5090635;28;20110;-58
2022/05/12 02:21:21;;;;;;;10.43;2.80;;;9.20;99.90;;;;;;5093507;28;20127;-59
2022/05/12 02:23:47;;;;;;;8.63;2.47;;;9.20;99.90;;;;;;5093565;28;20035;-59
2022/05/12 02:26:13;;;;;;;7.13;2.50;;;9.20;99.90;;;;;;5093602;28;20040;-59
2022/05/12 02:28:40;;;;;;;7.72;2.42;;;9.40;99.90;;;;;;5093289;28;20063;-59
2022/05/12 02:31:05;;;;;;;14.25;3.10;;;9.30;99.90;;;;;;5091818;28;20337;-59
2022/05/12 02:33:31;;;;;;;15.50;3.20;;;9.20;99.90;;;;;;5093506;28;20043;-60
2022/05/12 02:35:57;;;;;;;10.57;2.80;;;9.40;99.90;;;;;;5093220;28;20043;-59
2022/05/12 02:38:23;;;;;;;9.70;3.08;;;10.60;99.90;;;;;;5092510;28;20039;-58
2022/05/12 02:40:51;;;;;;;12.27;3.00;;;9.90;99.90;;;;;;5092206;28;20614;-58
2022/05/12 02:43:25;;;;;;;8.27;3.58;;;9.10;99.90;;;;;;5093240;28;20071;-58
2022/05/12 02:46:03;;;;;;;11.77;3.30;;;9.70;99.90;;;;;;5092336;28;20504;-58
2022/05/12 02:48:35;;;;;;;16.90;3.45;;;9.10;99.90;;;;;;5090395;28;20044;-59
2022/05/12 02:51:03;;;;;;;13.68;3.53;;;9.30;99.90;;;;;;5092199;28;20039;-56
2022/05/12 02:53:30;;;;;;;13.02;3.17;;;9.20;99.90;;;;;;5091685;28;20538;-58
2022/05/12 02:55:59;;;;;;;12.88;3.33;;;11.20;99.90;;;;;;5092358;28;20046;-59
2022/05/12 02:58:25;;;;;;;10.82;3.47;;;9.00;99.90;;;;;;5092444;28;20958;-58
2022/05/12 03:00:52;;;;;;;9.73;3.60;;;9.40;99.90;;;;;;5092162;28;20044;-57
2022/05/12 03:03:19;;;;;;;9.40;3.22;;;9.10;99.90;;;;;;5091666;28;20051;-58
2022/05/12 03:05:45;;;;;;;7.82;3.50;;;8.90;99.90;;;;;;5091322;28;20039;-58
2022/05/12 03:08:11;;;;;;;15.07;3.95;;;10.10;99.90;;;;;;5091777;28;20408;-57
2022/05/12 03:10:37;;;;;;;15.02;3.67;;;9.00;99.90;;;;;;5092307;28;20353;-59
2022/05/12 03:13:04;;;;;;;9.43;3.80;;;9.00;99.90;;;;;;5090970;28;20035;-58
2022/05/12 03:15:30;;;;;;;12.45;3.95;;;10.90;99.90;;;;;;5091666;28;20096;-59
2022/05/12 03:17:58;;;;;;;16.73;3.95;;;8.90;99.90;;;;;;5090392;28;20491;-58
2022/05/12 03:20:26;;;;;;;15.13;5.32;;;8.70;99.90;;;;;;5093104;28;20039;-58
2022/05/12 03:22:51;;;;;;;14.32;4.25;;;8.80;99.90;;;;;;5092397;28;20032;-59
2022/05/12 03:25:19;;;;;;;10.65;4.20;;;9.00;99.90;;;;;;5090140;28;20071;-59
2022/05/12 03:27:45;;;;;;;13.57;4.72;;;9.10;99.90;;;;;;5092471;28;20047;-58
2022/05/12 03:30:15;;;;;;;12.32;4.50;;;9.90;99.90;;;;;;5092313;28;20053;-58
2022/05/12 03:32:41;;;;;;;11.50;4.35;;;11.00;99.90;;;;;;5092653;28;20043;-59
2022/05/12 03:35:07;;;;;;;10.45;4.15;;;9.00;99.90;;;;;;5092823;28;20514;-59
2022/05/12 03:37:33;;;;;;;12.50;4.50;;;9.00;99.90;;;;;;5091280;28;20036;-59
2022/05/12 03:39:59;;;;;;;12.57;4.07;;;8.80;99.90;;;;;;5092034;28;20058;-59
2022/05/12 03:42:26;;;;;;;11.70;3.70;;;8.80;99.90;;;;;;5093247;28;20048;-59
2022/05/12 03:44:59;;;;;;;13.35;4.63;;;8.90;99.90;;;;;;5096662;28;20937;-59
2022/05/12 03:47:28;;;;;;;17.13;4.93;;;8.70;99.90;;;;;;5096445;28;20039;-59
2022/05/12 03:50:08;;;;;;;18.20;4.57;;;8.70;99.90;;;;;;5096022;28;20050;-59
2022/05/12 03:52:34;;;;;;;14.70;4.53;;;8.60;99.90;;;;;;5095705;28;20075;-59
2022/05/12 03:55:00;;;;;;;16.83;5.28;;;8.80;99.90;;;;;;5094905;28;20052;-59
2022/05/12 03:57:28;;;;;;;13.68;4.75;;;8.70;99.90;;;;;;5095545;28;20047;-59
2022/05/12 03:59:54;;;;;;;17.23;4.80;;;8.70;99.90;;;;;;5095734;28;20487;-59
2022/05/12 04:02:21;;;;;;;14.05;4.80;;;8.70;99.90;;;;;;5093367;28;20031;-59
2022/05/12 04:04:48;;;;;;;13.38;4.57;;;8.70;99.90;;;;;;5095377;28;20043;-59
2022/05/12 04:07:18;;;;;;;14.38;4.80;;;9.60;99.90;;;;;;5094586;28;20059;-58
2022/05/12 04:09:44;;;;;;;18.85;4.18;;;8.70;99.90;;;;;;5094409;28;20044;-59
2022/05/12 04:12:10;;;;;;;12.88;4.97;;;8.50;99.90;;;;;;5094339;28;20044;-59
2022/05/12 04:14:38;;;;;;;13.13;4.45;;;8.60;99.90;;;;;;5094826;28;20407;-60
2022/05/12 04:17:06;;;;;;;16.33;5.03;;;8.80;99.90;;;;;;5096026;28;20126;-59
2022/05/12 04:19:31;;;;;;;13.77;5.78;;;8.90;99.90;;;;;;5095821;28;20067;-59
2022/05/12 04:21:59;;;;;;;13.15;5.30;;;7.40;99.90;;;;;;5094837;28;20043;-59
2022/05/12 04:24:25;;;;;;;13.52;6.43;;;9.80;99.90;;;;;;5092584;28;20109;-59
2022/05/12 04:26:51;;;;;;;11.50;6.38;;;9.00;99.90;;;;;;5092733;28;20599;-60
2022/05/12 04:29:18;;;;;;;20.63;5.85;;;9.00;99.90;;;;;;5094956;28;20602;-59
2022/05/12 04:31:46;;;;;;;14.90;5.40;;;9.70;99.90;;;;;;5094335;28;20036;-59
2022/05/12 04:36:56;;;;;;;10.77;5.10;;;9.10;99.90;;;;;;5093119;28;20116;-59
2022/05/12 04:39:22;;;;;;;20.55;5.80;;;10.30;99.90;;;;;;5094348;28;20541;-59
2022/05/12 04:41:48;;;;;;;16.20;5.53;;;10.20;99.90;;;;;;5094232;27;20092;-59
2022/05/12 04:44:14;;;;;;;13.50;5.65;;;11.20;99.90;;;;;;5093649;28;20054;-59
2022/05/12 04:46:41;;;;;;;14.30;5.50;;;9.20;99.90;;;;;;5093542;28;20531;-59
2022/05/12 04:49:09;;;;;;;17.27;6.63;;;10.10;99.90;;;;;;5094813;28;20035;-59
2022/05/12 04:51:37;;;;;;;16.90;5.82;;;9.20;99.90;;;;;;5095524;28;20040;-59
2022/05/12 04:54:06;;;;;;;14.82;5.55;;;10.30;99.90;;;;;;5093679;28;20107;-59
2022/05/12 04:56:32;;;;;;;14.25;5.50;;;9.40;99.90;;;;;;5094329;28;20128;-59
2022/05/12 04:58:57;;;;;;;15.95;6.50;;;9.90;99.90;;;;;;5095203;28;20051;-59
2022/05/12 05:01:23;;;;;;;11.73;5.45;;;9.70;99.90;;;;;;5092600;28;20036;-59
2022/05/12 05:03:49;;;;;;;15.63;5.50;;;11.10;99.90;;;;;;5095180;28;20107;-59
2022/05/12 05:06:14;;;;;;;13.30;5.78;;;12.00;99.90;;;;;;5094466;28;20449;-59
2022/05/12 05:08:40;;;;;;;11.38;5.15;;;9.90;99.90;;;;;;5093469;28;20039;-59
2022/05/12 05:11:07;;;;;;;13.70;4.90;;;10.20;99.90;;;;;;5092032;28;20047;-59
2022/05/12 05:13:33;;;;;;;12.05;4.60;;;10.20;99.90;;;;;;5094805;28;20400;-59
2022/05/12 05:15:59;;;;;;;14.93;5.10;;;10.60;99.90;;;;;;5093871;28;20038;-60
2022/05/12 05:18:27;;;;;;;16.70;5.07;;;11.80;99.90;;;;;;5094372;28;20051;-59
2022/05/12 05:20:53;;;;;;;17.13;5.35;;;10.60;99.90;;;;;;5090776;28;20054;-59
2022/05/12 05:23:21;;;;;;;15.27;5.63;;;11.40;99.90;;;;;;5092351;28;20036;-59
2022/05/12 05:25:48;;;;;;;17.55;5.18;;;11.00;99.90;;;;;;5092382;28;20766;-59
2022/05/12 05:28:14;;;;;;;15.73;5.07;;;10.80;99.90;;;;;;5092515;28;20090;-59
2022/05/12 05:30:41;;;;;;;14.43;5.82;;;13.30;99.90;;;;;;5092435;28;20709;-59
2022/05/12 05:33:09;;;;;;;10.85;5.18;;;11.50;99.90;;;;;;5090613;28;20162;-59
2022/05/12 05:35:35;;;;;;;14.68;5.57;;;11.30;99.90;;;;;;5093066;28;20578;-58
2022/05/12 05:38:01;;;;;;;11.13;4.40;;;11.60;99.90;;;;;;5091013;28;20035;-60
2022/05/12 05:40:28;;;;;;;11.82;4.32;;;11.70;99.90;;;;;;5089246;28;20044;-59
2022/05/12 05:42:56;;;;;;;17.10;5.57;;;11.80;99.90;;;;;;5090750;28;20447;-59
2022/05/12 05:45:22;;;;;;;10.15;4.72;;;12.30;99.90;;;;;;5093105;28;20568;-59
2022/05/12 05:47:54;;;;;;;14.20;5.18;;;12.10;99.90;;;;;;5092277;28;20039;-59
2022/05/12 05:50:24;;;;;;;10.43;4.05;;;12.30;99.90;;;;;;5092231;28;20047;-59
2022/05/12 05:55:34;;;;;;;8.90;3.92;;;13.20;99.90;;;;;;5092551;28;20138;-59
2022/05/12 05:58:01;;;;;;;11.52;3.85;;;12.80;99.90;;;;;;5091667;28;20777;-60
2022/05/12 06:00:28;;;;;;;10.38;3.78;;;13.20;99.90;;;;;;5093254;28;20040;-60
2022/05/12 06:02:57;;;;;;;9.95;3.55;;;13.50;99.90;;;;;;5092564;28;20512;-59
2022/05/12 06:05:23;;;;;;;9.80;3.47;;;13.60;99.90;;;;;;5090586;28;20039;-59
2022/05/12 06:07:49;;;;;;;9.07;3.42;;;13.70;99.90;;;;;;5092139;28;20082;-59
2022/05/12 06:10:15;;;;;;;12.98;3.22;;;14.00;99.90;;;;;;5092467;28;20486;-60
2022/05/12 06:12:41;;;;;;;9.45;2.92;;;15.90;99.90;;;;;;5091599;28;20031;-59
2022/05/12 06:15:09;;;;;;;11.75;3.90;;;14.20;99.90;;;;;;5090439;28;20031;-60
2022/05/12 06:17:36;;;;;;;10.27;3.35;;;14.40;99.90;;;;;;5091281;28;20040;-60
2022/05/12 06:20:06;;;;;;;13.95;3.15;;;14.40;99.90;;;;;;5092802;28;20058;-60
2022/05/12 06:22:32;;;;;;;11.00;3.38;;;14.60;99.90;;;;;;5093950;28;20036;-60
2022/05/12 06:24:58;;;;;;;23.73;3.40;;;15.50;99.90;;;;;;5092881;28;20039;-60
2022/05/12 06:27:24;;;;;;;11.38;2.70;;;14.60;99.90;;;;;;5093446;28;20047;-59
2022/05/12 06:29:51;;;;;;;9.65;2.45;;;14.80;99.90;;;;;;5093124;28;20040;-60
2022/05/12 06:32:18;;;;;;;14.35;2.88;;;15.20;99.90;;;;;;5092392;28;20591;-60
2022/05/12 06:34:45;;;;;;;10.80;2.85;;;15.40;99.90;;;;;;5092657;28;20040;-61
2022/05/12 06:37:11;;;;;;;13.25;2.80;;;15.40;99.90;;;;;;5091441;28;20512;-60
2022/05/12 06:39:38;;;;;;;15.18;3.33;;;15.70;99.90;;;;;;5090607;28;20097;-60
2022/05/12 06:42:06;;;;;;;8.02;1.90;;;15.90;99.90;;;;;;5091335;28;20031;-60
2022/05/12 06:44:32;;;;;;;8.23;1.70;;;16.40;99.90;;;;;;5089862;28;20849;-60
2022/05/12 06:46:57;;;;;;;8.93;2.30;;;16.60;99.90;;;;;;5091407;28;20475;-60
2022/05/12 06:49:25;;;;;;;10.63;2.05;;;17.10;99.90;;;;;;5092699;28;20142;-60
2022/05/12 06:51:52;;;;;;;7.05;1.92;;;17.90;99.90;;;;;;5092722;28;20093;-60
2022/05/12 06:54:18;;;;;;;9.98;2.22;;;18.10;99.90;;;;;;5091098;28;20068;-60
2022/05/12 06:56:46;;;;;;;10.50;2.30;;;19.20;99.90;;;;;;5092359;28;20052;-61
2022/05/12 06:59:11;;;;;;;15.68;2.67;;;19.90;99.90;;;;;;5092332;28;20039;-61
2022/05/12 07:01:37;;;;;;;9.70;2.60;;;20.30;99.90;;;;;;5093344;28;20054;-61
2022/05/12 07:04:03;;;;;;;8.55;1.75;;;20.60;99.90;;;;;;5090554;28;20051;-60
2022/05/12 07:06:29;;;;;;;11.60;2.17;;;20.90;99.90;;;;;;5092083;28;20051;-61
2022/05/12 07:08:56;;;;;;;9.18;1.75;;;21.60;99.90;;;;;;5089640;28;20032;-61
2022/05/12 07:11:23;;;;;;;10.43;2.30;;;24.50;99.90;;;;;;5092873;28;20523;-61
2022/05/12 07:13:49;;;;;;;11.05;2.28;;;24.50;99.90;;;;;;5090955;28;20077;-61
2022/05/12 07:16:15;;;;;;;7.13;1.45;;;23.20;99.90;;;;;;5091749;28;20982;-61
2022/05/12 07:18:41;;;;;;;9.38;2.13;;;23.50;99.90;;;;;;5095936;28;20043;-61
2022/05/12 07:26:41;;;;;;;11.27;1.73;;;24.20;99.90;;;;;;5096202;28;20085;-61
2022/05/12 07:29:11;;;;;;;437.23;211.45;;;24.30;99.90;;;;;;5095955;28;20039;-61
2022/05/12 07:31:38;;;;;;;794.10;397.80;;;24.40;99.90;;;;;;5097310;28;20040;-61
2022/05/12 07:34:04;;;;;;;745.78;678.70;;;24.90;99.90;;;;;;5096872;28;20660;-61
2022/05/12 07:36:34;;;;;;;658.20;598.05;;;25.00;98.70;;;;;;5096422;28;20040;-61
2022/05/12 07:39:00;;;;;;;818.53;573.42;;;25.00;95.60;;;;;;5096099;28;20043;-61
2022/05/12 07:41:26;;;;;;;425.50;303.05;;;25.10;96.70;;;;;;5095110;28;20035;-62
2022/05/12 07:43:54;;;;;;;51.80;26.15;;;24.90;96.20;;;;;;5094955;28;20032;-61
2022/05/12 07:46:23;;;;;;;9.50;3.97;;;24.50;94.40;;;;;;5096143;28;20096;-61
2022/05/12 07:48:50;;;;;;;11.35;1.92;;;22.70;95.70;;;;;;5096018;28;20657;-61
2022/05/12 07:51:19;;;;;;;7.18;2.03;;;23.70;96.90;;;;;;5094880;28;20450;-61
2022/05/12 07:53:48;;;;;;;7.95;1.70;;;23.70;96.50;;;;;;5095829;28;20075;-61
2022/05/12 07:56:20;;;;;;;12.55;1.90;;;24.00;95.80;;;;;;5094893;28;20637;-61
2022/05/12 07:58:46;;;;;;;11.25;2.00;;;23.90;94.90;;;;;;5094924;28;20048;-60
2022/05/12 08:01:13;;;;;;;9.07;1.75;;;23.80;96.30;;;;;;5096357;28;20032;-60
2022/05/12 08:03:40;;;;;;;7.75;1.77;;;23.60;96.80;;;;;;5095093;28;20067;-60
2022/05/12 08:06:07;;;;;;;8.35;1.63;;;22.90;97.10;;;;;;5095331;28;20035;-60
2022/05/12 08:08:36;;;;;;;8.73;1.77;;;22.20;99.00;;;;;;5094104;28;20042;-60
2022/05/12 08:11:05;;;;;;;6.40;1.25;;;21.60;99.70;;;;;;5094197;28;20039;-60
2022/05/12 08:13:32;;;;;;;5.97;1.67;;;22.10;99.90;;;;;;5092564;28;20047;-60
2022/05/12 08:15:58;;;;;;;6.70;1.50;;;20.40;99.90;;;;;;5094162;28;20979;-60
2022/05/12 08:18:26;;;;;;;6.63;1.38;;;21.10;99.90;;;;;;5095137;28;20128;-60
2022/05/12 08:20:53;;;;;;;5.75;1.60;;;19.80;99.90;;;;;;5095001;28;20104;-61
2022/05/12 08:23:19;;;;;;;6.32;1.65;;;21.20;99.90;;;;;;5095067;28;20546;-60
2022/05/12 08:25:46;;;;;;;6.43;1.27;;;19.70;99.90;;;;;;5094829;28;20046;-60
2022/05/12 08:28:14;;;;;;;7.03;1.40;;;19.90;99.90;;;;;;5094870;28;20050;-60
2022/05/12 08:30:39;;;;;;;7.78;1.60;;;22.00;99.90;;;;;;5095757;28;20044;-59
2022/05/12 08:33:07;;;;;;;7.63;1.80;;;20.20;99.90;;;;;;5094738;28;20039;-60
2022/05/12 08:35:33;;;;;;;8.07;1.50;;;20.20;99.90;;;;;;5094321;28;20032;-59
2022/05/12 08:37:58;;;;;;;8.80;1.70;;;19.60;99.90;;;;;;5094151;28;20523;-59
2022/05/12 08:40:48;;;;;;;5.85;1.50;;;19.30;99.90;;;;;;5094794;28;20050;-61
2022/05/12 08:43:21;;;;;;;7.82;1.67;;;18.90;99.90;;;;;;5093994;28;20039;-60
2022/05/12 08:45:50;;;;;;;11.38;1.83;;;18.40;99.90;;;;;;5095280;28;20956;-60
2022/05/12 08:48:17;;;;;;;10.63;1.77;;;18.30;99.90;;;;;;5095468;28;20040;-60
2022/05/12 08:50:47;;;;;;;8.00;1.55;;;20.00;99.90;;;;;;5094930;28;20632;-59
2022/05/12 08:53:18;;;;;;;7.13;1.65;;;18.40;99.90;;;;;;5094955;28;20101;-60
2022/05/12 08:55:53;;;;;;;67.47;59.63;;;18.10;99.90;;;;;;5093514;28;20192;-60
2022/05/12 08:58:30;;;;;;;871.15;776.92;;;18.60;99.90;;;;;;5094202;28;20054;-59
2022/05/12 09:01:19;;;;;;;818.25;734.78;;;21.30;99.90;;;;;;5093998;28;20032;-60
2022/05/12 09:04:03;;;;;;;879.58;785.80;;;20.00;99.90;;;;;;5093066;28;20127;-59
2022/05/12 09:06:53;;;;;;;193.65;161.52;;;21.00;99.90;;;;;;5094037;28;20073;-60
2022/05/12 09:09:26;;;;;;;729.97;566.70;;;21.30;99.90;;;;;;5094076;28;20044;-60
2022/05/12 09:11:57;;;;;;;323.23;248.68;;;21.70;99.90;;;;;;5093677;28;22519;-60
2022/05/12 09:14:57;;;;;;;174.68;142.32;;;21.60;99.90;;;;;;5094361;28;20051;-60
2022/05/12 09:17:29;;;;;;;697.67;622.20;;;21.50;99.90;;;;;;5016961;28;20441;-60
2022/05/12 09:19:59;;;;;;;954.78;740.15;;;21.20;99.90;;;;;;5014440;28;20049;-60
2022/05/12 09:22:27;;;;;;;590.92;538.85;;;21.10;99.90;;;;;;5017554;28;20044;-60
2022/05/12 09:24:52;;;;;;;560.55;512.78;;;21.30;99.90;;;;;;5015516;28;20077;-60
2022/05/12 09:27:28;;;;;;;451.90;417.90;;;20.70;99.90;;;;;;5013752;28;20149;-59
2022/05/12 09:29:55;;;;;;;475.77;438.73;;;20.40;99.90;;;;;;5012839;28;20041;-59
2022/05/12 09:32:32;;;;;;;565.75;511.15;;;19.90;99.90;;;;;;5016624;28;20053;-60
2022/05/12 09:35:20;;;;;;;484.15;445.90;;;20.00;99.90;;;;;;5017247;28;20049;-60
2022/05/12 09:37:48;;;;;;;458.10;421.63;;;19.90;99.90;;;;;;5016895;28;20041;-59
2022/05/12 09:40:15;;;;;;;470.38;436.15;;;20.00;99.90;;;;;;5013232;28;20080;-60
2022/05/12 09:43:00;;;;;;;454.02;419.20;;;19.80;99.90;;;;;;5016113;28;20045;-60
2022/05/12 09:45:36;;;;;;;454.20;417.75;;;19.70;99.90;;;;;;5018872;28;20041;-59
2022/05/12 09:48:17;;;;;;;406.02;374.80;;;19.60;99.90;;;;;;5015406;28;20076;-61
2022/05/12 09:50:45;;;;;;;341.35;318.00;;;20.10;99.90;;;;;;5011798;28;20124;-60
2022/05/12 09:53:13;;;;;;;490.05;451.92;;;19.90;99.90;;;;;;5057571;28;20100;-58
2022/05/12 09:55:56;;;;;;;375.23;349.25;;;19.80;99.90;;;;;;5093057;28;20104;-59
2022/05/12 09:58:35;;;;;;;388.08;361.45;;;20.60;99.90;;;;;;5092842;28;20044;-59
2022/05/12 10:01:16;;;;;;;492.48;456.42;;;19.60;99.90;;;;;;5092887;28;20516;-59
2022/05/12 10:09:31;;;;;;;483.13;445.15;;;19.20;99.90;;;;;;5093117;28;20444;-60
2022/05/12 10:12:02;;;;;;;600.50;550.05;;;19.30;99.90;;;;;;5092208;28;20067;-60
2022/05/12 10:14:46;;;;;;;457.83;423.60;;;18.90;99.90;;;;;;5093829;28;20036;-60
2022/05/12 10:17:26;;;;;;;636.92;579.33;;;18.70;99.90;;;;;;5092130;28;20588;-60
2022/05/12 10:19:53;;;;;;;538.35;495.67;;;18.30;99.90;;;;;;5093401;28;20543;-59
2022/05/12 10:22:38;;;;;;;561.53;509.55;;;18.40;99.90;;;;;;5093902;28;20031;-58
2022/05/12 10:25:21;;;;;;;553.83;383.88;;;18.60;99.90;;;;;;5094269;28;20121;-59
2022/05/12 10:28:12;;;;;;;751.38;684.45;;;19.00;99.90;;;;;;5093686;28;20051;-60
2022/05/12 10:30:37;;;;;;;704.63;637.65;;;19.00;99.90;;;;;;5094017;28;20046;-59
2022/05/12 10:33:09;;;;;;;140.35;92.75;;;19.20;99.90;;;;;;5092069;28;20039;-59
2022/05/12 10:35:44;;;;;;;9.73;6.55;;;19.20;99.90;;;;;;5091043;28;20047;-59
2022/05/12 10:38:31;;;;;;;4.03;1.20;;;19.60;99.90;;;;;;5091513;28;20104;-58
2022/05/12 10:41:06;;;;;;;11.63;6.88;;;19.60;99.90;;;;;;5092825;28;20067;-59
2022/05/12 10:44:17;;;;;;;4.53;1.17;;;21.10;99.90;;;;;;5091991;28;20050;-59
2022/05/12 10:47:14;;;;;;;4.10;0.97;;;20.10;99.90;;;;;;5092157;28;21349;-59
2022/05/12 10:50:16;;;;;;;6.53;1.25;;;19.80;99.90;;;;;;5028604;28;20076;-60
2022/05/12 10:53:14;;;;;;;4.97;1.10;;;19.80;99.90;;;;;;5033998;28;20560;-59
2022/05/12 10:56:01;;;;;;;7.03;1.40;;;19.90;99.90;;;;;;5011814;28;20288;-60
2022/05/12 10:58:47;;;;;;;5.75;0.95;;;20.10;99.90;;;;;;5013775;28;20453;-59
2022/05/12 11:01:28;;;;;;;6.15;1.02;;;20.30;99.90;;;;;;5014475;28;20049;-59
2022/05/12 11:04:09;;;;;;;6.95;2.35;;;20.60;99.90;;;;;;5012985;28;20073;-60
2022/05/12 11:06:55;;;;;;;10.20;5.43;;;20.60;99.90;;;;;;4998799;28;20111;-59
2022/05/12 11:09:30;;;;;;;5.95;1.02;;;20.90;99.90;;;;;;5013084;28;20833;-59
2022/05/12 11:12:02;;;;;;;6.43;0.93;;;21.10;99.90;;;;;;5012732;28;20286;-59
2022/05/12 11:14:37;;;;;;;5.07;2.38;;;21.60;99.60;;;;;;5013852;28;20916;-59
2022/05/12 11:17:06;;;;;;;16.48;14.05;;;20.70;99.30;;;;;;5012062;28;22432;-59
2022/05/12 11:19:32;;;;;;;14.57;11.35;;;20.10;99.90;;;;;;5013821;28;20053;-59
2022/05/12 11:22:00;;;;;;;9.07;6.70;;;19.30;99.90;;;;;;5011449;28;20075;-60
2022/05/12 11:24:37;;;;;;;11.10;6.00;;;19.50;99.90;;;;;;5012397;28;20183;-59
2022/05/12 11:27:50;;;;;;;6.78;2.35;;;19.20;99.90;;;;;;5053875;28;20044;-60
2022/05/12 11:30:24;;;;;;;5.43;1.35;;;18.90;99.90;;;;;;5073812;28;20508;-59
2022/05/12 11:33:18;;;;;;;6.07;1.45;;;18.50;99.90;;;;;;5084813;28;20130;-60
2022/05/12 11:35:48;;;;;;;8.80;1.42;;;18.40;99.90;;;;;;5095816;28;20760;-59
2022/05/12 11:39:01;;;;;;;5.75;1.35;;;18.40;99.90;;;;;;5094452;28;20680;-60
2022/05/12 11:41:38;;;;;;;4.75;1.08;;;18.50;99.90;;;;;;5069555;28;20754;-60
2022/05/12 11:44:25;;;;;;;5.65;1.35;;;18.40;99.90;;;;;;5071440;28;20036;-59
2022/05/12 11:47:27;;;;;;;6.38;1.30;;;18.90;99.90;;;;;;5072496;28;20048;-59
2022/05/12 11:49:59;;;;;;;;;;;19.30;99.90;;;;;;5074047;28;20085;-59
2022/05/12 11:52:33;;;;;;;8.57;1.38;;;19.60;99.90;;;;;;5055364;28;20132;-59
2022/05/12 11:55:06;;;;;;;8.00;1.75;;;19.50;99.90;;;;;;5072408;28;20051;-59
2022/05/12 11:57:41;;;;;;;8.32;1.50;;;19.70;99.90;;;;;;5069988;28;21145;-59
2022/05/12 12:00:32;;;;;;;3.88;1.13;;;19.00;99.90;;;;;;5072942;28;20504;-60
2022/05/12 12:02:57;;;;;;;6.13;1.20;;;18.40;99.90;;;;;;5070958;28;20036;-59
2022/05/12 12:05:26;;;;;;;6.43;1.23;;;18.90;99.90;;;;;;5069560;28;20067;-59
2022/05/12 12:07:53;;;;;;;4.88;1.20;;;20.00;99.90;;;;;;5070878;28;20708;-59
2022/05/12 12:10:25;;;;;;;6.28;1.23;;;18.50;99.90;;;;;;5071081;28;20048;-58
2022/05/12 12:13:00;;;;;;;;;;;18.50;99.90;;;;;;5071166;28;20051;-59
2022/05/12 12:15:34;;;;;;;7.25;1.10;;;18.80;99.90;;;;;;5070483;28;20452;-57
2022/05/12 12:18:22;;;;;;;5.95;1.13;;;19.00;99.90;;;;;;5081603;28;20044;-59
2022/05/12 12:20:53;;;;;;;5.72;1.30;;;19.40;99.90;;;;;;5094771;28;20631;-59
2022/05/12 12:23:35;;;;;;;5.50;1.45;;;19.80;99.90;;;;;;5094568;28;20040;-59
2022/05/12 12:26:09;;;;;;;;;;;20.70;99.90;;;;;;5095232;28;20130;-58
2022/05/12 12:28:53;;;;;;;6.05;1.40;;;19.50;99.90;;;;;;5093725;28;19924;-58
2022/05/12 12:31:28;;;;;;;6.63;1.52;;;19.80;99.90;;;;;;5093515;28;20117;-59
2022/05/12 12:34:17;;;;;;;4.75;1.30;;;19.90;99.90;;;;;;5092171;28;20044;-59
2022/05/12 12:37:08;;;;;;;5.72;1.40;;;19.40;99.90;;;;;;5093312;28;20714;-59
2022/05/12 12:39:43;;;;;;;6.57;1.30;;;19.00;99.90;;;;;;5093943;28;20047;-59
2022/05/12 12:42:41;;;;;;;5.95;1.50;;;18.50;99.90;;;;;;5093510;28;20034;-59
2022/05/12 12:45:16;;;;;;;6.70;1.30;;;18.60;99.90;;;;;;5093279;28;20090;-58
2022/05/12 12:47:43;;;;;;;7.70;1.42;;;18.70;99.90;;;;;;5075142;28;20196;-58
2022/05/12 12:50:42;;;;;;;6.47;1.02;;;18.50;99.90;;;;;;5093671;28;20035;-60
2022/05/12 12:56:30;;;;;;;4.18;1.00;;;18.30;99.90;;;;;;5031293;28;20063;-58
2022/05/12 12:56:32;;;;;;;4.13;1.17;;;18.40;99.90;;;;;;5030161;28;20044;-58
2022/05/12 12:59:19;;;;;;;3.10;0.90;;;17.80;99.90;;;;;;5031649;28;20468;-58
2022/05/12 13:01:59;;;;;;;4.20;1.10;;;18.10;99.90;;;;;;5032403;28;20558;-56
2022/05/12 13:04:31;;;;;;;6.32;1.63;;;18.00;99.90;;;;;;5030842;28;20131;-57
2022/05/12 13:07:03;;;;;;;8.55;1.83;;;18.60;99.90;;;;;;5031231;28;20068;-57
2022/05/12 13:09:52;;;;;;;5.18;1.10;;;17.90;99.90;;;;;;5029863;28;20409;-57
2022/05/12 13:12:21;;;;;;;5.32;1.10;;;17.50;99.90;;;;;;5029736;28;20084;-57
2022/05/12 13:14:50;;;;;;;6.88;1.40;;;17.40;99.90;;;;;;5029242;28;20045;-58
2022/05/12 13:17:18;;;;;;;4.38;1.05;;;17.70;99.90;;;;;;5029678;28;20052;-59